createdAt,value
2022-10-31T00:00:54.068Z,15.90
2022-10-31T00:03:14.413Z,19.50
2022-10-31T00:05:20.520Z,14.70
2022-10-31T00:07:26.862Z,23.80
2022-10-31T00:09:33.260Z,13.60
2022-10-31T00:11:40.179Z,17.40
2022-10-31T00:13:46.587Z,18.00
2022-10-31T00:15:52.901Z,15.20
2022-10-31T00:18:01.212Z,17.90
2022-10-31T00:20:08.214Z,19.90
2022-10-31T00:22:14.526Z,16.90
2022-10-31T00:24:21.017Z,17.00
2022-10-31T00:26:29.116Z,15.20
2022-10-31T00:28:35.636Z,16.00
2022-10-31T00:30:42.073Z,14.10
2022-10-31T00:32:48.431Z,14.80
2022-10-31T00:34:54.832Z,17.90
2022-10-31T00:37:00.802Z,14.60
2022-10-31T00:39:07.527Z,14.10
2022-10-31T00:41:15.993Z,17.20
2022-10-31T00:43:22.176Z,17.20
2022-10-31T00:45:28.348Z,15.60
2022-10-31T00:47:34.331Z,13.90
2022-10-31T00:49:41.604Z,13.80
2022-10-31T00:51:48.503Z,13.90
2022-10-31T00:53:54.875Z,15.50
2022-10-31T00:56:01.387Z,15.80
2022-10-31T00:58:08.011Z,15.40
2022-10-31T01:00:14.894Z,16.20
2022-10-31T01:02:21.875Z,14.20
2022-10-31T01:04:29.232Z,12.20
2022-10-31T01:06:36.972Z,9.40
2022-10-31T01:08:43.783Z,13.70
2022-10-31T01:11:16.948Z,13.30
2022-10-31T01:13:23.311Z,15.00
2022-10-31T01:15:29.512Z,16.20
2022-10-31T01:17:35.769Z,12.80
2022-10-31T01:19:42.616Z,14.00
2022-10-31T01:21:49.147Z,13.80
2022-10-31T01:23:59.080Z,14.80
2022-10-31T01:26:33.138Z,11.80
2022-10-31T01:28:42.131Z,12.80
2022-10-31T01:30:48.559Z,12.70
2022-10-31T01:32:54.946Z,14.20
2022-10-31T01:35:01.329Z,10.60
2022-10-31T01:37:07.961Z,14.00
2022-10-31T01:39:16.842Z,10.10
2022-10-31T01:41:26.183Z,16.10
2022-10-31T01:43:49.985Z,15.90
2022-10-31T01:45:56.678Z,14.30
2022-10-31T01:48:03.169Z,16.80
2022-10-31T01:50:23.561Z,18.30
2022-10-31T01:52:39.863Z,16.20
2022-10-31T01:54:54.487Z,11.40
2022-10-31T01:57:03.004Z,14.80
2022-10-31T01:59:13.986Z,15.00
2022-10-31T02:01:21.015Z,13.90
2022-10-31T02:03:28.810Z,14.70
2022-10-31T02:05:37.555Z,13.50
2022-10-31T02:07:55.941Z,14.20
2022-10-31T02:10:07.549Z,12.50
2022-10-31T02:12:15.942Z,18.20
2022-10-31T02:14:25.340Z,14.50
2022-10-31T02:16:31.498Z,17.70
2022-10-31T02:18:37.661Z,14.00
2022-10-31T02:20:49.825Z,16.20
2022-10-31T02:23:17.386Z,13.30
2022-10-31T02:25:44.821Z,11.20
2022-10-31T02:28:09.365Z,21.80
2022-10-31T02:30:26.050Z,10.10
2022-10-31T02:32:50.787Z,17.20
2022-10-31T02:35:19.456Z,8.80
2022-10-31T02:37:46.900Z,12.60
2022-10-31T02:40:09.254Z,15.30
2022-10-31T02:45:53.365Z,12.60
2022-10-31T02:48:06.815Z,15.00
2022-10-31T02:50:23.866Z,14.80
2022-10-31T02:52:32.427Z,15.60
2022-10-31T02:54:42.284Z,13.70
2022-10-31T02:56:50.939Z,15.60
2022-10-31T02:59:07.300Z,16.60
2022-10-31T03:01:36.843Z,16.60
2022-10-31T03:04:06.843Z,22.00
2022-10-31T03:06:37.103Z,20.50
2022-10-31T03:09:21.958Z,19.40
2022-10-31T03:11:35.389Z,14.90
2022-10-31T03:14:09.370Z,20.10
2022-10-31T03:16:48.573Z,19.40
2022-10-31T03:19:06.951Z,18.00
2022-10-31T03:21:22.227Z,20.60
2022-10-31T03:23:30.848Z,21.80
2022-10-31T03:25:40.207Z,15.90
2022-10-31T03:27:50.260Z,20.00
2022-10-31T03:30:01.371Z,14.50
2022-10-31T03:32:18.016Z,21.10
2022-10-31T03:34:26.192Z,12.30
2022-10-31T03:36:35.554Z,21.20
2022-10-31T03:38:45.618Z,13.80
2022-10-31T03:40:59.782Z,13.60
2022-10-31T03:43:16.604Z,15.30
2022-10-31T03:45:28.362Z,17.60
2022-10-31T03:47:36.136Z,18.50
2022-10-31T03:49:42.766Z,13.70
2022-10-31T03:52:11.112Z,15.40
2022-10-31T03:54:29.608Z,10.50
2022-10-31T03:56:47.705Z,13.00
2022-10-31T03:59:01.221Z,15.80
2022-10-31T04:01:13.614Z,10.70
2022-10-31T04:03:28.514Z,15.70
2022-10-31T04:05:38.352Z,17.30
2022-10-31T04:07:50.633Z,16.80
2022-10-31T04:09:59.339Z,13.20
2022-10-31T04:12:10.637Z,17.60
2022-10-31T04:14:42.465Z,12.40
2022-10-31T04:16:49.523Z,12.10
2022-10-31T04:18:56.526Z,12.40
2022-10-31T04:21:05.371Z,15.30
2022-10-31T04:23:28.395Z,11.90
2022-10-31T04:25:35.287Z,13.70
2022-10-31T04:27:41.842Z,14.20
2022-10-31T04:29:50.812Z,13.40
2022-10-31T04:31:57.642Z,14.30
2022-10-31T04:34:04.554Z,12.10
2022-10-31T04:36:11.643Z,11.20
2022-10-31T04:38:18.333Z,10.90
2022-10-31T04:40:24.988Z,12.10
2022-10-31T04:42:34.482Z,11.90
2022-10-31T04:44:42.545Z,18.80
2022-10-31T04:46:49.302Z,11.10
2022-10-31T04:48:56.355Z,12.00
2022-10-31T04:51:04.584Z,11.20
2022-10-31T04:53:11.447Z,15.40
2022-10-31T04:55:38.564Z,9.40
2022-10-31T04:57:50.146Z,9.70
2022-10-31T04:59:56.807Z,4.60
2022-10-31T05:02:03.791Z,8.60
2022-10-31T05:04:23.246Z,12.40
2022-10-31T05:06:29.757Z,10.80
2022-10-31T05:08:36.892Z,12.10
2022-10-31T05:10:44.831Z,10.10
2022-10-31T05:12:54.431Z,11.60
2022-10-31T05:15:28.957Z,13.30
2022-10-31T05:17:54.416Z,9.50
2022-10-31T05:20:31.467Z,11.90
2022-10-31T05:22:58.607Z,13.40
2022-10-31T05:25:05.498Z,9.00
2022-10-31T05:27:11.971Z,12.10
2022-10-31T05:29:18.942Z,13.10
2022-10-31T05:31:25.436Z,9.70
2022-10-31T05:33:33.148Z,8.20
2022-10-31T05:35:58.708Z,9.50
2022-10-31T05:38:05.249Z,9.60
2022-10-31T05:40:14.147Z,12.30
2022-10-31T05:42:20.675Z,9.00
2022-10-31T05:44:27.508Z,11.00
2022-10-31T05:46:48.926Z,10.50
2022-10-31T05:49:15.269Z,15.20
2022-10-31T05:51:39.913Z,11.80
2022-10-31T05:53:49.510Z,9.60
2022-10-31T05:55:56.105Z,11.30
2022-10-31T05:58:03.391Z,9.70
2022-10-31T06:00:11.487Z,9.30
2022-10-31T06:02:27.232Z,6.10
2022-10-31T06:05:00.427Z,9.90
2022-10-31T06:07:06.892Z,5.50
2022-10-31T06:09:13.731Z,12.70
2022-10-31T06:11:25.015Z,12.00
2022-10-31T06:13:43.610Z,6.60
2022-10-31T06:15:57.394Z,14.20
2022-10-31T06:18:08.413Z,10.80
2022-10-31T06:20:23.886Z,7.70
2022-10-31T06:22:40.748Z,14.60
2022-10-31T06:24:47.511Z,4.80
2022-10-31T06:27:08.471Z,10.50
2022-10-31T06:29:15.706Z,7.30
2022-10-31T06:31:55.212Z,12.00
2022-10-31T06:34:01.739Z,6.80
2022-10-31T06:36:08.809Z,6.60
2022-10-31T06:38:15.755Z,7.00
2022-10-31T06:40:23.691Z,7.70
2022-10-31T06:43:03.914Z,9.80
2022-10-31T06:45:10.716Z,6.30
2022-10-31T06:48:15.483Z,5.00
2022-10-31T06:50:31.461Z,9.60
2022-10-31T06:52:37.732Z,4.40
2022-10-31T06:54:44.602Z,6.00
2022-10-31T06:56:51.252Z,8.50
2022-10-31T06:58:57.708Z,10.90
2022-10-31T07:01:26.566Z,4.70
2022-10-31T07:03:33.611Z,9.80
2022-10-31T07:05:40.391Z,6.60
2022-10-31T07:07:46.518Z,6.60
2022-10-31T07:09:53.292Z,6.20
2022-10-31T07:12:09.416Z,8.00
2022-10-31T07:14:18.222Z,5.10
2022-10-31T07:16:24.554Z,13.10
2022-10-31T07:18:31.678Z,9.40
2022-10-31T07:20:38.625Z,6.10
2022-10-31T07:22:50.425Z,7.20
2022-10-31T07:24:58.003Z,5.60
2022-10-31T07:27:24.537Z,10.80
2022-10-31T07:29:31.379Z,10.30
2022-10-31T07:31:38.359Z,6.60
2022-10-31T07:33:52.905Z,8.10
2022-10-31T07:36:08.477Z,5.70
2022-10-31T07:38:16.949Z,8.10
2022-10-31T07:40:25.102Z,4.90
2022-10-31T07:42:32.019Z,5.80
2022-10-31T07:44:38.065Z,9.60
2022-10-31T07:47:17.065Z,9.00
2022-10-31T07:49:41.367Z,6.70
2022-10-31T07:52:14.121Z,6.10
2022-10-31T07:54:49.791Z,10.80
2022-10-31T07:57:02.204Z,8.70
2022-10-31T07:59:08.537Z,8.70
2022-10-31T08:01:14.878Z,7.70
2022-10-31T08:03:25.378Z,6.30
2022-10-31T08:05:50.506Z,9.60
2022-10-31T08:08:06.722Z,8.60
2022-10-31T08:10:13.121Z,7.50
2022-10-31T08:12:19.886Z,10.20
2022-10-31T08:14:26.106Z,8.60
2022-10-31T08:16:32.258Z,5.30
2022-10-31T08:18:40.957Z,9.40
2022-10-31T08:20:48.830Z,7.80
2022-10-31T08:22:56.664Z,3.70
2022-10-31T08:25:02.663Z,10.00
2022-10-31T08:27:08.683Z,9.40
2022-10-31T08:29:17.942Z,5.50
2022-10-31T08:31:33.137Z,5.70
2022-10-31T08:33:59.226Z,6.50
2022-10-31T08:36:18.694Z,5.60
2022-10-31T08:38:30.457Z,7.10
2022-10-31T08:40:38.969Z,6.10
2022-10-31T08:42:44.999Z,4.40
2022-10-31T08:44:51.916Z,6.70
2022-10-31T08:47:00.387Z,3.30
2022-10-31T08:49:06.556Z,5.50
2022-10-31T08:51:14.374Z,6.00
2022-10-31T08:53:22.393Z,6.70
2022-10-31T08:55:37.614Z,9.70
2022-10-31T08:57:47.597Z,8.40
2022-10-31T08:59:54.588Z,7.70
2022-10-31T09:02:04.830Z,6.70
2022-10-31T09:04:11.282Z,5.40
2022-10-31T09:06:18.289Z,7.80
2022-10-31T09:08:28.049Z,5.90
2022-10-31T09:10:37.293Z,7.60
2022-10-31T09:12:43.750Z,6.60
2022-10-31T09:14:56.063Z,5.00
2022-10-31T09:17:10.350Z,5.30
2022-10-31T09:19:31.002Z,7.50
2022-10-31T09:21:37.623Z,5.90
2022-10-31T09:23:44.180Z,5.40
2022-10-31T09:25:52.181Z,6.80
2022-10-31T09:28:13.169Z,8.80
2022-10-31T09:30:19.970Z,4.80
2022-10-31T09:32:29.062Z,8.20
2022-10-31T09:34:36.092Z,4.50
2022-10-31T09:36:50.754Z,5.20
2022-10-31T09:38:59.373Z,5.60
2022-10-31T09:41:42.259Z,5.80
2022-10-31T09:44:21.458Z,3.80
2022-10-31T09:46:49.224Z,5.20
2022-10-31T09:49:13.828Z,5.90
2022-10-31T09:51:41.735Z,5.70
2022-10-31T09:54:06.529Z,8.50
2022-10-31T09:56:18.684Z,5.20
2022-10-31T10:00:42.255Z,6.20
2022-10-31T10:03:15.340Z,6.80
2022-10-31T10:05:52.517Z,5.20
2022-10-31T10:08:22.091Z,4.80
2022-10-31T10:11:00.385Z,6.20
2022-10-31T10:13:35.251Z,6.20
2022-10-31T10:15:59.002Z,5.20
2022-10-31T10:18:24.038Z,7.30
2022-10-31T10:21:01.232Z,10.70
2022-10-31T10:23:43.365Z,8.00
2022-10-31T10:25:56.897Z,9.20
2022-10-31T10:28:25.847Z,12.10
2022-10-31T10:30:47.666Z,10.70
2022-10-31T10:33:02.121Z,4.60
2022-10-31T10:35:31.819Z,5.10
2022-10-31T10:37:44.793Z,3.30
2022-10-31T10:39:59.546Z,10.10
2022-10-31T10:42:35.539Z,4.40
2022-10-31T10:45:08.782Z,4.60
2022-10-31T10:47:33.361Z,4.60
2022-10-31T10:49:55.551Z,11.00
2022-10-31T10:54:46.734Z,4.90
2022-10-31T10:57:08.215Z,9.70
2022-10-31T10:59:20.344Z,4.70
2022-10-31T11:01:27.282Z,7.50
2022-10-31T11:03:38.447Z,10.80
2022-10-31T11:06:00.497Z,6.20
2022-10-31T11:08:07.948Z,5.00
2022-10-31T11:10:17.218Z,4.60
2022-10-31T11:12:34.631Z,4.40
2022-10-31T11:15:24.932Z,5.10
2022-10-31T11:17:35.870Z,5.40
2022-10-31T11:19:42.321Z,6.60
2022-10-31T11:21:52.796Z,7.60
2022-10-31T11:24:16.485Z,3.70
2022-10-31T11:26:23.836Z,8.10
2022-10-31T11:28:36.846Z,4.30
2022-10-31T11:30:53.965Z,4.20
2022-10-31T11:33:01.265Z,3.90
2022-10-31T11:35:15.568Z,4.20
2022-10-31T11:37:43.204Z,6.10
2022-10-31T11:39:56.790Z,5.80
2022-10-31T11:42:08.912Z,10.90
2022-10-31T11:44:20.431Z,8.20
2022-10-31T11:46:46.960Z,5.70
2022-10-31T11:48:56.425Z,3.80
2022-10-31T11:51:03.171Z,5.30
2022-10-31T11:53:21.646Z,3.60
2022-10-31T11:55:40.213Z,9.80
2022-10-31T11:57:49.581Z,8.30
2022-10-31T11:59:58.658Z,6.80
2022-10-31T12:02:20.050Z,4.10
2022-10-31T12:04:47.926Z,3.70
2022-10-31T12:06:56.328Z,6.80
2022-10-31T12:09:02.806Z,10.50
2022-10-31T12:11:34.554Z,5.40
2022-10-31T12:16:25.913Z,3.70
2022-10-31T12:18:47.263Z,5.20
2022-10-31T12:21:11.954Z,6.10
2022-10-31T12:23:21.474Z,5.70
2022-10-31T12:25:32.859Z,5.30
2022-10-31T12:28:02.832Z,3.50
2022-10-31T12:30:18.980Z,4.00
2022-10-31T12:32:53.854Z,5.30
2022-10-31T12:35:06.290Z,2.90
2022-10-31T12:37:50.398Z,8.30
2022-10-31T12:40:26.820Z,7.40
2022-10-31T12:43:01.796Z,7.90
2022-10-31T12:45:32.281Z,5.00
2022-10-31T12:47:43.541Z,9.70
2022-10-31T12:50:24.231Z,5.30
2022-10-31T12:53:01.402Z,4.30
2022-10-31T12:55:34.386Z,4.60
2022-10-31T12:58:01.027Z,7.70
2022-10-31T13:00:13.809Z,6.80
2022-10-31T13:02:23.260Z,3.20
2022-10-31T13:04:57.523Z,3.50
2022-10-31T13:07:12.660Z,3.50
2022-10-31T13:09:24.941Z,3.80
2022-10-31T13:11:36.901Z,5.90
2022-10-31T13:15:59.706Z,5.10
2022-10-31T13:18:19.540Z,7.40
2022-10-31T13:20:40.088Z,9.80
2022-10-31T13:22:50.779Z,5.70
2022-10-31T13:25:21.916Z,6.30
2022-10-31T13:28:04.092Z,7.10
2022-10-31T13:30:19.574Z,5.20
2022-10-31T13:32:26.849Z,5.40
2022-10-31T13:34:48.277Z,3.30
2022-10-31T13:37:03.138Z,4.20
2022-10-31T13:39:36.582Z,9.30
2022-10-31T13:42:05.603Z,6.60
2022-10-31T13:44:26.260Z,5.60
2022-10-31T13:46:36.068Z,3.70
2022-10-31T13:48:44.685Z,8.70
2022-10-31T13:51:04.136Z,5.10
2022-10-31T13:53:16.701Z,3.30
2022-10-31T13:55:49.284Z,6.80
2022-10-31T14:00:25.216Z,5.50
2022-10-31T14:02:34.760Z,7.50
2022-10-31T14:04:57.115Z,8.70
2022-10-31T14:09:37.331Z,7.50
2022-10-31T14:11:50.289Z,11.80
2022-10-31T14:13:59.602Z,13.50
2022-10-31T14:16:09.877Z,12.00
2022-10-31T14:18:33.314Z,13.00
2022-10-31T14:20:41.227Z,12.10
2022-10-31T14:22:47.945Z,6.20
2022-10-31T14:24:54.438Z,12.00
2022-10-31T14:27:23.880Z,7.30
2022-10-31T14:29:32.512Z,6.90
2022-10-31T14:31:47.094Z,4.50
2022-10-31T14:33:54.246Z,10.40
2022-10-31T14:36:24.097Z,10.70
2022-10-31T14:38:30.153Z,6.60
2022-10-31T14:41:18.049Z,3.80
2022-10-31T14:43:33.167Z,5.70
2022-10-31T14:45:48.533Z,6.40
2022-10-31T14:48:15.622Z,7.90
2022-10-31T14:50:25.891Z,5.50
2022-10-31T14:52:32.307Z,8.90
2022-10-31T14:54:47.521Z,5.70
2022-10-31T14:56:59.349Z,6.80
2022-10-31T14:59:11.854Z,8.40
2022-10-31T15:01:42.016Z,8.90
2022-10-31T15:04:10.486Z,9.10
2022-10-31T15:06:19.295Z,3.80
2022-10-31T15:08:42.384Z,6.00
2022-10-31T15:10:48.805Z,4.40
2022-10-31T15:12:55.668Z,6.50
2022-10-31T15:15:18.903Z,8.60
2022-10-31T15:17:29.752Z,5.00
2022-10-31T15:19:38.479Z,3.80
2022-10-31T15:21:48.015Z,2.60
2022-10-31T15:23:56.523Z,4.80
2022-10-31T15:26:04.304Z,4.90
2022-10-31T15:28:26.150Z,6.40
2022-10-31T15:30:32.766Z,9.00
2022-10-31T15:32:39.031Z,6.30
2022-10-31T15:34:46.580Z,4.20
2022-10-31T15:36:53.300Z,3.70
2022-10-31T15:38:59.789Z,8.30
2022-10-31T15:41:30.293Z,5.40
2022-10-31T15:43:41.146Z,3.90
2022-10-31T15:45:47.646Z,2.90
2022-10-31T15:48:03.881Z,4.10
2022-10-31T15:50:24.488Z,5.10
2022-10-31T15:52:48.273Z,4.50
2022-10-31T15:55:01.387Z,5.60
2022-10-31T15:57:13.860Z,3.80
2022-10-31T15:59:26.107Z,4.50
2022-10-31T16:01:34.989Z,3.80
2022-10-31T16:03:42.644Z,2.90
2022-10-31T16:05:50.248Z,2.90
2022-10-31T16:07:57.235Z,3.10
2022-10-31T16:10:05.813Z,2.90
2022-10-31T16:12:21.413Z,3.90
2022-10-31T16:14:32.296Z,5.70
2022-10-31T16:16:51.871Z,3.10
2022-10-31T16:18:59.177Z,2.80
2022-10-31T16:21:06.121Z,1.80
2022-10-31T16:23:19.978Z,1.70
2022-10-31T16:25:31.161Z,2.30
2022-10-31T16:27:39.439Z,2.30
2022-10-31T16:29:48.026Z,2.80
2022-10-31T16:31:54.261Z,3.00
2022-10-31T16:34:26.498Z,2.70
2022-10-31T16:36:35.993Z,3.70
2022-10-31T16:38:42.772Z,2.70
2022-10-31T16:40:49.260Z,2.40
2022-10-31T16:42:55.981Z,4.90
2022-10-31T16:45:02.368Z,1.50
2022-10-31T16:47:18.076Z,2.00
2022-10-31T16:49:24.458Z,2.60
2022-10-31T16:51:30.719Z,2.50
2022-10-31T16:53:42.767Z,2.30
2022-10-31T16:56:17.842Z,1.70
2022-10-31T16:58:31.727Z,3.20
2022-10-31T17:00:37.717Z,2.60
2022-10-31T17:02:44.197Z,2.10
2022-10-31T17:04:53.723Z,1.80
2022-10-31T17:07:03.029Z,3.10
2022-10-31T17:09:09.271Z,1.60
2022-10-31T17:11:19.519Z,2.70
2022-10-31T17:13:29.220Z,3.00
2022-10-31T17:15:44.099Z,4.00
2022-10-31T17:17:50.905Z,2.80
2022-10-31T17:19:57.291Z,1.10
2022-10-31T17:22:04.241Z,1.60
2022-10-31T17:24:15.535Z,2.20
2022-10-31T17:26:22.226Z,3.80
2022-10-31T17:28:29.164Z,2.30
2022-10-31T17:30:38.169Z,2.20
2022-10-31T17:32:44.676Z,3.70
2022-10-31T17:34:51.212Z,5.30
2022-10-31T17:36:57.636Z,3.30
2022-10-31T17:39:06.481Z,2.20
2022-10-31T17:41:13.024Z,2.80
2022-10-31T17:43:19.933Z,3.20
2022-10-31T17:45:28.356Z,6.60
2022-10-31T17:47:34.895Z,4.00
2022-10-31T17:49:41.768Z,4.40
2022-10-31T17:51:48.321Z,2.50
2022-10-31T17:53:54.786Z,7.40
2022-10-31T17:56:06.665Z,2.90
2022-10-31T17:58:16.659Z,3.40
2022-10-31T18:00:25.479Z,5.50
2022-10-31T18:02:31.791Z,7.00
2022-10-31T18:04:39.501Z,3.70
2022-10-31T18:06:46.664Z,3.30
2022-10-31T18:08:53.155Z,2.50
2022-10-31T18:11:02.380Z,5.20
2022-10-31T18:13:08.725Z,5.30
2022-10-31T18:15:15.120Z,3.20
2022-10-31T18:17:22.451Z,7.40
2022-10-31T18:19:28.590Z,5.20
2022-10-31T18:21:35.015Z,5.00
2022-10-31T18:23:41.105Z,4.70
2022-10-31T18:25:47.742Z,2.70
2022-10-31T18:27:55.022Z,3.90
2022-10-31T18:30:01.205Z,6.80
2022-10-31T18:32:09.506Z,3.50
2022-10-31T18:34:17.514Z,3.50
2022-10-31T18:36:24.408Z,5.60
2022-10-31T18:38:30.408Z,4.30
2022-10-31T18:40:37.278Z,3.00
2022-10-31T18:42:43.261Z,3.20
2022-10-31T18:44:49.511Z,4.40
2022-10-31T18:46:55.919Z,5.10
2022-10-31T18:49:02.647Z,6.10
2022-10-31T18:51:11.184Z,2.80
2022-10-31T18:53:17.266Z,8.60
2022-10-31T18:55:23.736Z,4.90
2022-10-31T18:57:30.991Z,2.70
2022-10-31T18:59:37.193Z,3.50
2022-10-31T19:01:43.486Z,5.10
2022-10-31T19:03:55.535Z,5.30
2022-10-31T19:06:01.596Z,4.00
2022-10-31T19:08:07.705Z,3.40
2022-10-31T19:10:14.173Z,2.20
2022-10-31T19:12:20.609Z,2.20
2022-10-31T19:14:27.288Z,4.90
2022-10-31T19:16:33.697Z,3.10
2022-10-31T19:18:40.383Z,4.00
2022-10-31T19:20:46.537Z,1.90
2022-10-31T19:22:52.797Z,2.10
2022-10-31T19:24:59.275Z,3.90
2022-10-31T19:27:05.421Z,3.10
2022-10-31T19:29:12.279Z,2.00
2022-10-31T19:31:20.046Z,1.80
2022-10-31T19:33:35.878Z,2.10
2022-10-31T19:35:43.020Z,3.30
2022-10-31T19:37:49.341Z,4.20
2022-10-31T19:39:55.358Z,2.20
2022-10-31T19:42:01.795Z,4.60
2022-10-31T19:44:09.489Z,3.70
2022-10-31T19:46:27.776Z,2.20
2022-10-31T19:48:41.262Z,3.10
2022-10-31T19:50:47.633Z,1.60
2022-10-31T19:52:53.996Z,1.90
2022-10-31T19:55:00.552Z,4.30
2022-10-31T19:57:06.791Z,3.30
2022-10-31T19:59:13.179Z,3.30
2022-10-31T20:01:23.437Z,2.80
2022-10-31T20:03:29.977Z,3.20
2022-10-31T20:05:40.926Z,4.00
2022-10-31T20:07:47.027Z,3.10
2022-10-31T20:09:54.233Z,3.70
2022-10-31T20:12:00.485Z,2.10
2022-10-31T20:14:07.630Z,3.00
2022-10-31T20:16:15.650Z,4.60
2022-10-31T20:20:33.990Z,2.50
2022-10-31T20:22:40.040Z,2.00
2022-10-31T20:24:46.615Z,1.90
2022-10-31T20:26:53.298Z,3.00
2022-10-31T20:29:00.848Z,3.20
2022-10-31T20:31:16.094Z,3.80
2022-10-31T20:33:22.751Z,3.50
2022-10-31T20:35:28.963Z,3.10
2022-10-31T20:37:35.470Z,4.50
2022-10-31T20:39:41.717Z,2.50
2022-10-31T20:41:49.773Z,4.10
2022-10-31T20:43:56.174Z,5.20
2022-10-31T20:46:14.232Z,2.60
2022-10-31T20:48:21.585Z,2.30
2022-10-31T20:50:28.020Z,2.20
2022-10-31T20:52:34.380Z,4.80
2022-10-31T20:54:40.774Z,3.40
2022-10-31T20:56:47.016Z,2.60
2022-10-31T20:58:55.003Z,3.40
2022-10-31T21:01:02.235Z,3.60
2022-10-31T21:03:08.503Z,2.90
2022-10-31T21:05:15.597Z,2.90
2022-10-31T21:07:22.057Z,3.80
2022-10-31T21:09:28.623Z,3.30
2022-10-31T21:11:34.924Z,2.60
2022-10-31T21:13:42.918Z,2.70
2022-10-31T21:15:49.496Z,4.60
2022-10-31T21:17:56.918Z,6.50
2022-10-31T21:20:03.416Z,7.00
2022-10-31T21:22:09.550Z,3.50
2022-10-31T21:26:31.604Z,5.20
2022-10-31T21:28:38.011Z,5.20
2022-10-31T21:30:49.603Z,5.30
2022-10-31T21:32:55.868Z,4.80
2022-10-31T21:35:02.444Z,10.90
2022-10-31T21:37:09.127Z,6.30
2022-10-31T21:39:15.581Z,6.10
2022-10-31T21:41:22.392Z,2.50
2022-10-31T21:43:28.751Z,4.00
2022-10-31T21:45:36.275Z,5.00
2022-10-31T21:47:43.080Z,6.90
2022-10-31T21:49:49.628Z,2.90
2022-10-31T21:51:56.200Z,4.20
2022-10-31T21:54:21.480Z,2.40
2022-10-31T21:56:28.355Z,4.90
2022-10-31T21:58:37.755Z,5.00
2022-10-31T22:00:45.436Z,4.70
2022-10-31T22:02:52.703Z,8.50
2022-10-31T22:04:59.171Z,4.90
2022-10-31T22:07:05.569Z,8.70
2022-10-31T22:09:15.542Z,6.10
2022-10-31T22:11:22.590Z,6.70
2022-10-31T22:13:32.634Z,7.10
2022-10-31T22:15:39.007Z,4.80
2022-10-31T22:17:45.340Z,7.10
2022-10-31T22:19:51.931Z,2.60
2022-10-31T22:21:58.618Z,9.10
2022-10-31T22:24:07.692Z,6.30
2022-10-31T22:26:16.614Z,3.20
2022-10-31T22:28:23.328Z,5.70
2022-10-31T22:30:29.799Z,3.00
2022-10-31T22:32:36.261Z,8.50
2022-10-31T22:34:43.040Z,4.80
2022-10-31T22:36:49.362Z,4.20
2022-10-31T22:38:55.944Z,5.70
2022-10-31T22:41:03.552Z,5.90
2022-10-31T22:43:09.961Z,4.80
2022-10-31T22:45:17.194Z,5.20
2022-10-31T22:47:23.785Z,4.60
2022-10-31T22:49:31.365Z,5.50
2022-10-31T22:51:40.201Z,3.60
2022-10-31T22:53:48.210Z,5.30
2022-10-31T22:55:54.684Z,2.70
2022-10-31T22:58:01.254Z,5.10
2022-10-31T23:00:09.701Z,6.00
2022-10-31T23:02:16.380Z,8.40
2022-10-31T23:04:22.986Z,4.30
2022-10-31T23:06:31.700Z,5.80
2022-10-31T23:08:39.054Z,5.50
2022-10-31T23:10:45.955Z,3.70
2022-10-31T23:13:11.235Z,5.30
2022-10-31T23:15:17.436Z,6.70
2022-10-31T23:17:23.518Z,4.60
2022-10-31T23:19:31.812Z,3.70
2022-10-31T23:22:01.044Z,4.80
2022-10-31T23:24:08.023Z,4.70
2022-10-31T23:26:32.722Z,4.20
2022-10-31T23:28:38.724Z,3.50
2022-10-31T23:30:47.626Z,5.90
2022-10-31T23:32:53.693Z,4.60
2022-10-31T23:35:02.363Z,6.70
2022-10-31T23:39:21.361Z,5.40
2022-10-31T23:41:30.248Z,4.60
2022-10-31T23:43:36.695Z,4.90
2022-10-31T23:45:46.108Z,4.60
2022-10-31T23:47:52.529Z,6.00
2022-10-31T23:49:58.679Z,8.40
2022-10-31T23:52:05.773Z,7.00
2022-10-31T23:54:12.688Z,5.20
2022-10-31T23:56:19.059Z,4.70
2022-10-31T23:58:25.492Z,7.00
